Time;durP1;ratioP1;P1;durP2;ratioP2;P2;SDS_P1;SDS_P2;PMS_P1;PMS_P2;Temp;Humidity;BMP_temperature;BMP_pressure;BME280_temperature;BME280_humidity;BME280_pressure;Samples;Min_cycle;Max_cycle;Signal;HPM_P1;HPM_P2
2021/07/06 00:00:08;;;;;;;1.63;1.50;;;18.90;70.60;;;;;;5062509;28;20828;-77
2021/07/06 00:02:34;;;;;;;3.20;1.80;;;18.80;70.50;;;;;;5063596;28;20514;-77
2021/07/06 00:05:01;;;;;;;1.90;1.80;;;18.70;72.30;;;;;;5057168;28;20889;-78
2021/07/06 00:07:29;;;;;;;2.07;1.80;;;18.70;73.00;;;;;;5066789;28;20476;-79
2021/07/06 00:09:56;;;;;;;2.97;1.80;;;18.60;73.50;;;;;;5070197;28;20822;-78
2021/07/06 00:12:24;;;;;;;3.13;1.87;;;18.60;73.80;;;;;;5056743;28;21017;-78
2021/07/06 00:14:52;;;;;;;4.43;1.80;;;18.60;74.00;;;;;;5056980;28;20859;-78
2021/07/06 00:17:20;;;;;;;1.57;1.47;;;18.60;74.30;;;;;;5057147;28;21004;-78
2021/07/06 00:19:47;;;;;;;1.70;1.60;;;18.60;74.40;;;;;;5057242;28;20525;-78
2021/07/06 00:22:13;;;;;;;1.80;1.50;;;18.50;74.40;;;;;;5060148;28;20456;-78
2021/07/06 00:24:41;;;;;;;2.00;1.80;;;18.60;74.00;;;;;;5077167;28;20440;-77
2021/07/06 00:27:08;;;;;;;2.50;1.40;;;18.60;74.00;;;;;;5075384;28;20947;-78
2021/07/06 00:29:35;;;;;;;1.63;1.53;;;18.60;73.10;;;;;;5056713;28;20552;-79
2021/07/06 00:32:04;;;;;;;1.50;1.30;;;18.70;72.00;;;;;;5056879;28;20492;-78
2021/07/06 00:34:31;;;;;;;3.23;1.70;;;18.70;71.30;;;;;;5056938;28;20477;-79
2021/07/06 00:36:58;;;;;;;2.77;1.60;;;18.70;71.10;;;;;;5059601;28;20472;-79
2021/07/06 00:39:25;;;;;;;1.40;1.30;;;18.70;71.10;;;;;;5069384;28;20931;-77
2021/07/06 00:41:52;;;;;;;1.70;1.60;;;18.70;71.00;;;;;;5060466;28;20500;-79
2021/07/06 00:44:21;;;;;;;1.87;1.30;;;18.60;71.90;;;;;;5062353;28;20523;-77
2021/07/06 00:46:48;;;;;;;1.60;1.50;;;18.50;72.60;;;;;;5075021;28;20433;-78
2021/07/06 00:49:17;;;;;;;3.27;2.07;;;18.40;73.90;;;;;;5076118;28;20474;-78
2021/07/06 00:51:44;;;;;;;3.70;1.57;;;18.30;75.10;;;;;;5061022;28;20457;-79
2021/07/06 00:54:11;;;;;;;1.60;1.50;;;18.30;75.40;;;;;;5056997;28;20479;-79
2021/07/06 00:56:39;;;;;;;1.57;1.47;;;18.30;75.90;;;;;;5072066;28;20490;-78
2021/07/06 00:59:06;;;;;;;2.67;1.63;;;18.30;75.70;;;;;;5076450;28;20804;-78
2021/07/06 01:01:33;;;;;;;2.73;1.57;;;18.30;75.20;;;;;;5075666;28;20897;-77
2021/07/06 01:04:00;;;;;;;1.33;1.23;;;18.20;75.10;;;;;;5075663;28;20487;-79
2021/07/06 01:06:28;;;;;;;2.80;1.33;;;18.30;75.10;;;;;;5076684;28;20455;-78
2021/07/06 01:08:55;;;;;;;1.50;1.40;;;18.40;73.70;;;;;;5084610;28;20456;-78
2021/07/06 01:11:23;;;;;;;1.87;1.23;;;18.40;72.80;;;;;;5092162;28;20791;-78
2021/07/06 01:13:50;;;;;;;1.40;1.30;;;18.50;71.20;;;;;;5077649;28;20502;-79
2021/07/06 01:16:17;;;;;;;2.20;1.23;;;18.60;71.10;;;;;;5090345;28;20474;-78
2021/07/06 01:18:45;;;;;;;1.50;1.23;;;18.60;70.70;;;;;;5081613;28;20455;-78
2021/07/06 01:21:12;;;;;;;1.77;1.50;;;18.60;70.90;;;;;;5075744;28;20510;-77
2021/07/06 01:23:41;;;;;;;1.60;1.50;;;18.60;71.00;;;;;;5075821;28;20483;-78
2021/07/06 01:26:09;;;;;;;1.70;1.07;;;18.70;70.20;;;;;;5075568;28;20937;-78
2021/07/06 01:28:38;;;;;;;1.93;1.40;;;18.70;70.20;;;;;;5075826;28;20460;-79
2021/07/06 01:31:05;;;;;;;1.90;1.40;;;18.70;70.40;;;;;;5076284;28;20459;-78
2021/07/06 01:33:34;;;;;;;1.97;1.30;;;18.70;70.40;;;;;;5075498;28;20475;-79
2021/07/06 01:36:04;;;;;;;1.00;1.00;;;18.70;70.20;;;;;;5076273;28;20466;-79
2021/07/06 01:38:32;;;;;;;2.20;1.10;;;18.70;70.20;;;;;;5077336;28;20986;-77
2021/07/06 01:41:00;;;;;;;4.37;1.43;;;18.60;70.50;;;;;;5079751;28;20519;-79
2021/07/06 01:43:27;;;;;;;4.07;1.20;;;18.60;70.70;;;;;;5084205;28;20467;-77
2021/07/06 01:45:56;;;;;;;2.53;1.10;;;18.60;71.00;;;;;;5100676;28;20447;-78
2021/07/06 01:48:22;;;;;;;2.23;1.70;;;18.60;71.20;;;;;;5084995;28;20551;-78
2021/07/06 01:50:49;;;;;;;1.40;1.33;;;18.60;71.50;;;;;;5097310;28;20486;-76
2021/07/06 01:53:21;;;;;;;3.50;1.40;;;18.60;71.80;;;;;;5098877;28;20480;-76
2021/07/06 01:55:50;;;;;;;4.83;1.33;;;18.50;71.70;;;;;;5082566;28;20460;-79
2021/07/06 01:58:21;;;;;;;5.33;1.47;;;18.50;71.90;;;;;;5078688;28;20439;-77
2021/07/06 02:00:51;;;;;;;2.40;1.60;;;18.50;72.10;;;;;;5079012;28;20482;-78
2021/07/06 02:03:18;;;;;;;1.57;1.10;;;18.50;72.20;;;;;;5078410;28;20907;-78
2021/07/06 02:05:46;;;;;;;1.37;1.27;;;18.50;72.30;;;;;;5078769;28;20489;-77
2021/07/06 02:08:17;;;;;;;1.70;1.30;;;18.50;72.40;;;;;;5078720;28;20489;-77
2021/07/06 02:10:45;;;;;;;1.30;1.17;;;18.50;72.90;;;;;;5079155;28;20534;-77
2021/07/06 02:13:15;;;;;;;1.60;1.50;;;18.40;73.50;;;;;;5089619;28;20863;-79
2021/07/06 02:15:44;;;;;;;1.50;1.40;;;18.40;73.10;;;;;;5091269;28;20455;-78
2021/07/06 02:18:16;;;;;;;2.20;1.73;;;18.40;73.20;;;;;;5088144;28;20462;-79
2021/07/06 02:20:43;;;;;;;1.37;1.27;;;18.40;73.40;;;;;;5090308;28;20479;-79
2021/07/06 02:23:10;;;;;;;1.57;1.47;;;18.30;74.20;;;;;;5090334;28;20494;-79
2021/07/06 02:25:37;;;;;;;1.83;1.73;;;18.30;75.10;;;;;;5088566;28;20476;-78
2021/07/06 02:28:05;;;;;;;1.93;1.50;;;18.30;75.10;;;;;;5088498;28;20494;-77
2021/07/06 02:30:32;;;;;;;2.33;1.40;;;18.20;75.00;;;;;;5087979;28;20455;-79
2021/07/06 02:33:00;;;;;;;1.50;1.40;;;18.20;75.10;;;;;;5091778;28;20474;-78
2021/07/06 02:35:27;;;;;;;1.70;1.60;;;18.10;76.90;;;;;;5088239;28;20474;-79
2021/07/06 02:37:57;;;;;;;1.50;1.40;;;18.00;77.70;;;;;;5082543;28;20460;-79
2021/07/06 02:40:24;;;;;;;1.80;1.70;;;17.90;79.00;;;;;;5082723;28;21056;-79
2021/07/06 02:42:52;;;;;;;1.50;1.40;;;17.80;79.40;;;;;;5080236;28;21003;-79
2021/07/06 02:45:19;;;;;;;1.60;1.50;;;17.80;80.30;;;;;;5078928;28;20463;-79
2021/07/06 02:47:47;;;;;;;2.83;1.63;;;17.80;81.60;;;;;;5086554;28;20483;-78
2021/07/06 02:50:17;;;;;;;2.87;1.70;;;17.70;82.10;;;;;;5080405;28;20455;-79
2021/07/06 02:52:44;;;;;;;1.57;1.47;;;17.70;82.00;;;;;;5078117;28;20558;-76
2021/07/06 02:55:13;;;;;;;3.47;1.40;;;17.70;82.50;;;;;;5079395;28;20487;-78
2021/07/06 02:57:40;;;;;;;1.80;1.70;;;17.60;83.20;;;;;;5061910;28;20452;-78
2021/07/06 03:00:10;;;;;;;1.70;1.60;;;17.60;83.20;;;;;;5056486;28;20555;-76
2021/07/06 03:02:37;;;;;;;2.20;2.00;;;17.60;83.90;;;;;;5056013;28;20479;-78
2021/07/06 03:05:06;;;;;;;2.33;2.00;;;17.50;84.40;;;;;;5056522;28;20460;-79
2021/07/06 03:07:34;;;;;;;2.10;1.90;;;17.60;85.20;;;;;;5057649;28;20455;-77
2021/07/06 03:10:02;;;;;;;1.60;1.50;;;17.60;86.00;;;;;;5058298;28;20459;-77
2021/07/06 03:12:29;;;;;;;2.17;1.97;;;17.60;84.30;;;;;;5057484;28;20543;-77
2021/07/06 03:14:56;;;;;;;2.97;2.20;;;17.70;83.30;;;;;;5058545;28;20524;-78
2021/07/06 03:17:23;;;;;;;2.93;1.73;;;17.80;83.40;;;;;;5059343;28;20476;-78
2021/07/06 03:19:50;;;;;;;2.00;1.80;;;17.80;82.40;;;;;;5068202;28;20490;-77
2021/07/06 03:22:17;;;;;;;1.60;1.50;;;17.90;80.80;;;;;;5072841;28;20466;-79
2021/07/06 03:24:45;;;;;;;2.00;1.70;;;17.90;80.40;;;;;;5058022;28;20837;-79
2021/07/06 03:27:12;;;;;;;3.10;2.00;;;17.90;80.10;;;;;;5057432;28;20470;-79
2021/07/06 03:29:39;;;;;;;2.50;1.90;;;17.90;80.40;;;;;;5058177;28;20453;-79
2021/07/06 03:32:06;;;;;;;2.23;1.83;;;17.80;81.30;;;;;;5062611;28;20458;-79
2021/07/06 03:34:33;;;;;;;2.53;1.97;;;17.80;81.10;;;;;;5077089;28;20483;-79
2021/07/06 03:37:02;;;;;;;2.90;2.00;;;17.80;81.40;;;;;;5079362;28;20430;-78
2021/07/06 03:39:29;;;;;;;1.80;1.70;;;17.80;81.70;;;;;;5075493;28;20462;-79
2021/07/06 03:41:57;;;;;;;2.10;2.00;;;17.80;81.80;;;;;;5074698;28;20503;-78
2021/07/06 03:44:24;;;;;;;1.80;1.57;;;17.80;82.00;;;;;;5081272;28;20516;-79
2021/07/06 03:46:51;;;;;;;2.20;2.00;;;17.90;81.20;;;;;;5086196;28;20512;-79
2021/07/06 03:49:18;;;;;;;1.60;1.50;;;17.90;80.40;;;;;;5084290;28;20482;-79
2021/07/06 03:51:45;;;;;;;1.60;1.50;;;18.10;79.70;;;;;;5087534;28;20444;-79
2021/07/06 03:54:12;;;;;;;4.10;2.03;;;18.20;77.70;;;;;;5064109;28;20473;-79
2021/07/06 03:56:39;;;;;;;3.70;1.67;;;18.30;76.60;;;;;;5077312;28;20434;-79
2021/07/06 03:59:07;;;;;;;2.07;1.90;;;18.40;75.20;;;;;;5083795;28;20524;-79
2021/07/06 04:01:34;;;;;;;2.60;1.50;;;18.50;73.60;;;;;;5070979;28;20463;-80
2021/07/06 04:04:01;;;;;;;1.40;1.23;;;18.70;72.30;;;;;;5067160;28;20476;-79
2021/07/06 04:06:29;;;;;;;1.67;1.57;;;18.70;71.80;;;;;;5078069;28;20479;-78
2021/07/06 04:08:56;;;;;;;1.80;1.50;;;18.80;71.60;;;;;;5077227;28;20807;-79
2021/07/06 04:11:22;;;;;;;1.73;1.43;;;18.80;72.00;;;;;;5074705;28;20448;-77
2021/07/06 04:13:49;;;;;;;1.80;1.70;;;18.90;71.70;;;;;;5074050;28;20549;-77
2021/07/06 04:16:18;;;;;;;3.57;1.70;;;18.90;71.30;;;;;;5073717;28;20487;-78
2021/07/06 04:18:45;;;;;;;1.40;1.30;;;18.90;71.00;;;;;;5074876;28;20459;-78
2021/07/06 04:21:12;;;;;;;1.90;1.60;;;19.00;69.90;;;;;;5079128;28;20624;-79
2021/07/06 04:23:39;;;;;;;1.90;1.73;;;19.10;70.30;;;;;;5070100;28;20869;-77
2021/07/06 04:26:08;;;;;;;2.60;2.13;;;19.20;68.80;;;;;;5071398;28;20552;-79
2021/07/06 04:28:35;;;;;;;2.23;2.03;;;19.30;68.50;;;;;;5056849;28;20975;-79
2021/07/06 04:31:02;;;;;;;1.70;1.60;;;19.40;67.80;;;;;;5055210;28;20963;-79
2021/07/06 04:33:31;;;;;;;1.63;1.53;;;19.40;67.20;;;;;;5056167;28;20451;-78
2021/07/06 04:35:58;;;;;;;1.67;1.57;;;19.60;66.40;;;;;;5053723;28;20460;-79
2021/07/06 04:38:25;;;;;;;1.90;1.70;;;19.80;65.50;;;;;;5058843;28;20453;-79
2021/07/06 04:40:54;;;;;;;4.03;1.73;;;20.00;64.20;;;;;;5072827;28;20489;-79
2021/07/06 04:43:21;;;;;;;2.30;1.80;;;20.20;63.50;;;;;;5075943;28;20508;-76
2021/07/06 04:45:48;;;;;;;2.13;1.60;;;20.40;61.70;;;;;;5074653;28;20458;-81
2021/07/06 04:48:16;;;;;;;2.27;1.77;;;20.60;61.00;;;;;;5067996;28;20459;-76
2021/07/06 04:50:44;;;;;;;2.33;1.23;;;20.70;60.80;;;;;;5076520;28;20450;-78
2021/07/06 04:53:11;;;;;;;2.03;1.60;;;20.90;59.40;;;;;;5073036;28;20485;-79
2021/07/06 04:55:39;;;;;;;1.40;1.30;;;21.10;58.00;;;;;;5079333;28;20464;-79
2021/07/06 04:58:07;;;;;;;3.80;1.50;;;21.10;58.00;;;;;;5085182;28;20456;-79
2021/07/06 05:00:34;;;;;;;1.40;1.30;;;21.00;58.80;;;;;;5095786;28;20423;-79
2021/07/06 05:03:01;;;;;;;6.17;1.80;;;20.90;59.40;;;;;;5095806;28;20454;-78
2021/07/06 05:05:28;;;;;;;3.90;1.50;;;20.90;59.00;;;;;;5080372;28;20453;-80
2021/07/06 05:07:57;;;;;;;2.37;1.60;;;21.00;58.80;;;;;;5077554;28;20493;-79
2021/07/06 05:10:24;;;;;;;1.50;1.40;;;21.30;58.40;;;;;;5060118;28;20470;-79
2021/07/06 05:12:51;;;;;;;2.37;1.30;;;22.10;55.40;;;;;;5057751;28;20475;-79
2021/07/06 05:15:18;;;;;;;1.70;1.50;;;23.20;51.90;;;;;;5059035;28;20929;-79
2021/07/06 05:17:45;;;;;;;1.63;1.53;;;23.80;48.00;;;;;;5052279;28;20427;-78
2021/07/06 05:20:13;;;;;;;2.60;1.50;;;23.80;47.90;;;;;;5063028;28;20407;-78
2021/07/06 05:22:40;;;;;;;1.40;1.30;;;23.60;48.40;;;;;;5054743;28;21022;-78
2021/07/06 05:25:10;;;;;;;2.70;1.77;;;24.00;48.80;;;;;;5052752;28;20425;-77
2021/07/06 05:27:37;;;;;;;2.07;1.80;;;24.80;46.70;;;;;;5052563;28;20440;-78
2021/07/06 05:30:05;;;;;;;3.73;1.73;;;24.90;46.40;;;;;;5052986;28;20488;-77
2021/07/06 05:32:32;;;;;;;7.60;1.50;;;25.50;44.40;;;;;;5052875;28;20576;-78
2021/07/06 05:34:59;;;;;;;4.40;1.77;;;26.00;44.10;;;;;;5052900;28;20481;-78
2021/07/06 05:37:26;;;;;;;2.33;2.03;;;26.30;42.20;;;;;;5052614;28;20510;-78
2021/07/06 05:39:53;;;;;;;2.27;2.07;;;26.50;40.90;;;;;;5052730;28;20485;-77
2021/07/06 05:42:21;;;;;;;4.00;1.97;;;26.40;41.30;;;;;;5052202;28;20492;-77
2021/07/06 05:44:48;;;;;;;2.00;1.80;;;26.60;40.80;;;;;;5052208;28;20885;-77
2021/07/06 05:47:16;;;;;;;3.80;1.80;;;26.90;40.10;;;;;;5055875;28;20502;-78
2021/07/06 05:49:43;;;;;;;3.83;2.20;;;27.50;38.40;;;;;;5052608;28;20452;-78
2021/07/06 05:52:10;;;;;;;4.60;1.93;;;27.30;38.30;;;;;;5051738;28;20563;-79
2021/07/06 05:54:37;;;;;;;6.93;2.00;;;27.30;38.40;;;;;;5052022;28;20470;-78
2021/07/06 05:57:04;;;;;;;2.53;1.73;;;27.40;38.40;;;;;;5054171;28;20488;-80
2021/07/06 05:59:32;;;;;;;3.93;1.97;;;28.00;36.60;;;;;;5047548;28;20489;-79
2021/07/06 06:01:59;;;;;;;3.20;1.83;;;28.10;35.30;;;;;;5035139;28;21070;-79
2021/07/06 06:04:27;;;;;;;2.87;1.97;;;27.30;37.60;;;;;;5032705;28;20448;-78
2021/07/06 06:06:54;;;;;;;8.27;2.50;;;26.50;40.20;;;;;;5033025;28;20460;-79
2021/07/06 06:09:24;;;;;;;2.73;1.40;;;26.60;40.60;;;;;;5034586;28;20463;-79
2021/07/06 06:11:51;;;;;;;5.93;1.97;;;26.80;40.10;;;;;;5039296;28;20445;-78
2021/07/06 06:14:18;;;;;;;1.90;1.73;;;27.00;39.60;;;;;;5048163;28;20465;-79
2021/07/06 06:16:46;;;;;;;2.70;1.50;;;27.00;39.40;;;;;;5044493;28;20453;-79
2021/07/06 06:19:13;;;;;;;8.07;1.93;;;27.10;39.20;;;;;;5045403;28;20440;-79
2021/07/06 06:21:40;;;;;;;5.00;1.83;;;27.20;39.60;;;;;;5045341;28;20490;-80
2021/07/06 06:24:07;;;;;;;2.30;1.77;;;27.60;38.10;;;;;;5038439;28;20473;-80
2021/07/06 06:26:34;;;;;;;6.47;1.77;;;27.90;37.40;;;;;;5035713;28;20461;-79
2021/07/06 06:29:01;;;;;;;2.03;1.70;;;27.60;38.20;;;;;;5037769;28;20443;-79
2021/07/06 06:31:28;;;;;;;2.93;1.70;;;27.90;38.00;;;;;;5039130;28;20498;-79
2021/07/06 06:33:56;;;;;;;3.03;1.67;;;27.60;38.50;;;;;;5039703;28;20483;-80
2021/07/06 06:36:23;;;;;;;3.20;1.80;;;28.30;36.90;;;;;;5039578;28;20496;-79
2021/07/06 06:38:50;;;;;;;4.17;1.40;;;28.90;35.90;;;;;;5061189;28;20499;-80
2021/07/06 06:41:17;;;;;;;2.17;1.80;;;28.60;35.70;;;;;;5057786;28;20441;-79
2021/07/06 06:43:44;;;;;;;2.27;1.67;;;27.60;37.30;;;;;;5056394;28;20524;-79
2021/07/06 06:46:11;;;;;;;3.57;2.00;;;27.10;39.20;;;;;;5057472;28;20519;-78
2021/07/06 06:48:38;;;;;;;2.07;1.83;;;26.60;40.20;;;;;;5057749;28;20494;-79
2021/07/06 06:51:06;;;;;;;2.67;2.27;;;26.30;41.30;;;;;;5059373;28;20506;-78
2021/07/06 06:53:33;;;;;;;2.13;1.93;;;25.80;42.20;;;;;;5060053;28;20514;-79
2021/07/06 06:56:01;;;;;;;5.47;1.60;;;25.40;43.80;;;;;;5044475;28;20422;-78
2021/07/06 06:58:28;;;;;;;6.80;1.93;;;25.40;43.80;;;;;;5043316;28;20464;-79
2021/07/06 07:00:55;;;;;;;6.07;2.33;;;25.20;43.60;;;;;;5042338;28;20483;-78
2021/07/06 07:03:22;;;;;;;2.77;2.10;;;24.80;44.00;;;;;;5042134;28;20507;-80
2021/07/06 07:05:50;;;;;;;4.83;2.00;;;24.70;44.90;;;;;;5043401;28;20508;-80
2021/07/06 07:08:18;;;;;;;4.30;1.57;;;24.10;47.20;;;;;;5043213;28;20460;-80
2021/07/06 07:10:47;;;;;;;2.17;1.87;;;24.10;47.30;;;;;;5044831;28;20445;-80
2021/07/06 07:13:14;;;;;;;4.97;2.00;;;24.80;46.00;;;;;;5040101;28;20524;-79
2021/07/06 07:15:42;;;;;;;2.07;1.87;;;25.30;45.40;;;;;;5043225;28;20429;-78
2021/07/06 07:18:09;;;;;;;2.90;2.00;;;25.10;45.70;;;;;;5042153;28;20556;-79
2021/07/06 07:20:37;;;;;;;5.87;2.03;;;25.10;45.90;;;;;;5041335;28;20563;-79
2021/07/06 07:23:04;;;;;;;3.07;1.73;;;24.90;46.10;;;;;;5040394;28;20869;-78
2021/07/06 07:25:33;;;;;;;7.20;1.87;;;24.80;46.30;;;;;;5038114;28;20504;-78
2021/07/06 07:27:59;;;;;;;4.33;1.67;;;24.80;47.10;;;;;;5039053;28;20428;-79
2021/07/06 07:30:27;;;;;;;11.33;1.93;;;24.70;47.30;;;;;;5040489;28;20506;-79
2021/07/06 07:32:54;;;;;;;1.93;1.80;;;24.40;48.00;;;;;;5038978;28;20481;-78
2021/07/06 07:35:21;;;;;;;5.00;2.00;;;24.40;48.00;;;;;;5043935;28;20462;-79
2021/07/06 07:37:48;;;;;;;4.43;2.23;;;24.40;47.90;;;;;;5041821;28;20549;-77
2021/07/06 07:40:17;;;;;;;5.03;2.03;;;24.30;48.10;;;;;;5039095;28;20564;-78
2021/07/06 07:42:47;;;;;;;3.97;1.87;;;24.30;48.40;;;;;;5078520;23;20502;-78
2021/07/06 07:45:15;;;;;;;3.43;2.00;;;24.20;47.80;;;;;;5066463;28;20614;-78
2021/07/06 07:47:42;;;;;;;4.30;2.20;;;24.30;48.30;;;;;;5067639;28;20433;-79
2021/07/06 07:50:10;;;;;;;2.33;2.23;;;24.40;48.30;;;;;;5067875;28;20417;-78
2021/07/06 07:52:37;;;;;;;2.70;2.03;;;24.30;48.40;;;;;;5070731;28;20567;-79
2021/07/06 07:55:06;;;;;;;1.83;1.70;;;24.40;48.70;;;;;;5065602;28;20457;-79
2021/07/06 07:57:33;;;;;;;2.10;1.90;;;24.30;49.00;;;;;;5063804;28;20908;-78
2021/07/06 08:00:02;;;;;;;6.80;2.27;;;24.00;50.20;;;;;;5058342;28;20803;-78
2021/07/06 08:02:29;;;;;;;3.30;2.47;;;23.90;51.20;;;;;;5058659;28;20533;-79
2021/07/06 08:04:56;;;;;;;4.83;2.70;;;23.50;52.10;;;;;;5064677;28;20477;-79
2021/07/06 08:07:26;;;;;;;4.77;1.70;;;23.30;51.90;;;;;;5058947;28;20510;-79
2021/07/06 08:09:53;;;;;;;2.70;2.13;;;23.30;51.90;;;;;;5054998;28;20483;-79
2021/07/06 08:12:20;;;;;;;3.90;2.30;;;23.50;52.10;;;;;;5056496;28;20487;-79
2021/07/06 08:14:48;;;;;;;2.33;2.10;;;23.30;52.00;;;;;;5057626;28;20487;-80
2021/07/06 08:17:16;;;;;;;3.07;2.40;;;23.00;53.80;;;;;;5058209;28;20439;-79
2021/07/06 08:19:43;;;;;;;2.93;2.63;;;22.90;55.00;;;;;;5057446;28;20427;-78
2021/07/06 08:22:10;;;;;;;5.53;2.10;;;22.70;56.30;;;;;;5065137;28;20554;-79
2021/07/06 08:24:37;;;;;;;9.47;2.70;;;22.70;57.00;;;;;;5069380;28;20435;-77
2021/07/06 08:27:04;;;;;;;3.37;2.80;;;22.60;57.70;;;;;;5064451;28;20628;-78
2021/07/06 08:29:37;;;;;;;2.97;2.43;;;22.30;60.70;;;;;;5055172;28;20438;-77
2021/07/06 08:32:05;;;;;;;2.90;2.53;;;22.20;60.60;;;;;;5058844;28;20430;-81
2021/07/06 08:34:33;;;;;;;5.43;2.27;;;22.10;62.30;;;;;;5072081;28;20495;-80
2021/07/06 08:37:00;;;;;;;3.90;2.33;;;22.10;63.10;;;;;;5072859;28;20458;-79
2021/07/06 08:39:28;;;;;;;4.80;2.97;;;22.00;65.10;;;;;;5074029;28;20406;-78
2021/07/06 08:41:55;;;;;;;6.50;2.73;;;21.90;69.50;;;;;;5068123;28;20434;-80
2021/07/06 08:44:22;;;;;;;4.10;3.20;;;21.70;74.70;;;;;;5068813;28;20567;-80
2021/07/06 08:46:50;;;;;;;5.10;3.13;;;21.30;80.50;;;;;;5067318;28;20454;-80
2021/07/06 08:49:20;;;;;;;5.43;3.10;;;20.90;89.10;;;;;;5068609;28;20470;-82
2021/07/06 08:51:50;;;;;;;5.90;4.10;;;20.40;93.40;;;;;;5070037;28;20440;-81
2021/07/06 08:54:17;;;;;;;4.13;3.13;;;20.10;97.40;;;;;;5075928;28;20465;-82
2021/07/06 08:56:44;;;;;;;4.13;3.33;;;19.90;99.90;;;;;;5074822;28;20490;-82
2021/07/06 08:59:11;;;;;;;3.30;3.00;;;19.70;99.90;;;;;;5074666;28;20452;-81
2021/07/06 09:01:38;;;;;;;6.90;3.20;;;19.50;99.90;;;;;;5075003;28;20449;-82
2021/07/06 09:04:07;;;;;;;3.17;2.87;;;19.50;99.90;;;;;;5073126;28;21000;-82
2021/07/06 09:06:56;;;;;;;5.13;3.23;;;19.40;99.90;;;;;;5074239;28;20467;-81
2021/07/06 09:09:24;;;;;;;4.53;3.43;;;19.50;99.90;;;;;;5074459;28;20877;-81
2021/07/06 09:11:53;;;;;;;3.87;2.57;;;19.40;99.90;;;;;;5075777;28;20450;-81
2021/07/06 09:14:23;;;;;;;2.50;2.30;;;19.40;99.90;;;;;;5076274;28;20495;-82
2021/07/06 09:16:50;;;;;;;5.60;2.33;;;19.30;99.90;;;;;;5076997;28;20487;-79
2021/07/06 09:19:21;;;;;;;3.70;2.90;;;19.30;99.90;;;;;;5075821;28;20455;-81
2021/07/06 09:22:09;;;;;;;3.07;2.23;;;19.30;99.90;;;;;;5075605;28;20461;-81
2021/07/06 09:24:37;;;;;;;3.43;2.10;;;19.40;99.90;;;;;;5067968;28;20595;-82
2021/07/06 09:27:24;;;;;;;3.30;2.50;;;19.40;99.90;;;;;;5067943;28;20536;-81
2021/07/06 09:30:06;;;;;;;4.80;2.40;;;19.40;99.90;;;;;;5068755;28;20483;-82
2021/07/06 09:32:33;;;;;;;2.67;2.27;;;19.50;99.90;;;;;;5069188;28;20472;-81
2021/07/06 09:35:06;;;;;;;3.20;2.50;;;19.70;99.90;;;;;;5068289;28;20469;-81
2021/07/06 09:37:47;;;;;;;3.33;2.10;;;19.90;99.90;;;;;;5065939;28;20459;-79
2021/07/06 09:40:30;;;;;;;2.87;2.17;;;19.90;99.90;;;;;;5068985;28;20449;-80
2021/07/06 09:43:28;;;;;;;6.00;1.90;;;19.90;99.90;;;;;;5063250;28;20471;-81
2021/07/06 09:46:07;;;;;;;3.87;2.00;;;19.80;99.90;;;;;;4997066;28;20455;-81
2021/07/06 09:48:35;;;;;;;2.30;2.10;;;19.90;99.90;;;;;;5052633;28;20486;-80
2021/07/06 09:51:15;;;;;;;3.30;2.10;;;20.00;99.90;;;;;;5065953;28;20883;-80
2021/07/06 09:53:42;;;;;;;2.10;1.90;;;20.10;99.90;;;;;;5056346;28;20511;-81
2021/07/06 09:56:11;;;;;;;2.70;2.50;;;20.20;99.90;;;;;;5065864;28;20538;-80
2021/07/06 09:58:52;;;;;;;4.33;2.20;;;20.20;99.90;;;;;;5055981;28;20788;-80
2021/07/06 10:01:19;;;;;;;2.43;1.60;;;20.10;99.90;;;;;;5058818;28;20412;-79
2021/07/06 10:03:47;;;;;;;2.03;1.57;;;20.10;99.90;;;;;;5062009;28;20576;-82
2021/07/06 10:06:16;;;;;;;2.03;1.93;;;20.10;99.90;;;;;;5061062;28;20543;-81
2021/07/06 10:08:43;;;;;;;2.00;1.77;;;20.00;99.90;;;;;;5061366;28;20454;-81
2021/07/06 10:11:11;;;;;;;1.93;1.77;;;20.00;99.90;;;;;;5061083;28;20476;-80
2021/07/06 10:13:39;;;;;;;2.07;1.63;;;19.90;99.50;;;;;;5077026;28;20476;-80
2021/07/06 10:16:06;;;;;;;2.27;2.00;;;19.90;99.80;;;;;;5080298;28;20433;-80
2021/07/06 10:18:33;;;;;;;2.00;1.50;;;20.00;99.90;;;;;;5079215;28;20477;-81
2021/07/06 10:21:01;;;;;;;1.50;1.40;;;20.10;99.10;;;;;;5079115;28;20465;-81
2021/07/06 10:23:28;;;;;;;1.80;1.70;;;20.10;98.30;;;;;;5078867;28;20659;-80
2021/07/06 10:25:58;;;;;;;1.93;1.80;;;20.00;98.50;;;;;;5078428;28;20934;-80
2021/07/06 10:28:28;;;;;;;5.00;2.60;;;20.00;98.20;;;;;;5070253;28;20768;-80
2021/07/06 10:30:56;;;;;;;2.00;1.50;;;20.10;98.80;;;;;;5061470;28;20453;-81
2021/07/06 10:33:31;;;;;;;3.73;1.43;;;20.00;98.10;;;;;;5061151;28;20496;-79
2021/07/06 10:35:58;;;;;;;2.43;1.30;;;20.00;98.50;;;;;;5061398;28;20448;-82
2021/07/06 10:38:43;;;;;;;1.30;1.23;;;20.00;98.50;;;;;;5064038;28;20461;-80
2021/07/06 10:41:16;;;;;;;1.30;1.20;;;20.00;97.30;;;;;;5077079;28;20419;-79
2021/07/06 10:44:08;;;;;;;0.90;0.90;;;20.10;96.90;;;;;;5078333;28;20494;-81
2021/07/06 10:46:48;;;;;;;2.10;0.80;;;20.20;95.50;;;;;;5076947;28;20446;-80
2021/07/06 10:49:28;;;;;;;1.30;1.20;;;20.20;94.70;;;;;;5076580;28;20460;-79
2021/07/06 10:51:56;;;;;;;1.30;1.20;;;20.20;95.50;;;;;;5076867;28;20429;-80
2021/07/06 10:54:34;;;;;;;1.10;1.00;;;20.40;95.60;;;;;;5064169;28;20497;-79
2021/07/06 10:57:22;;;;;;;1.10;1.00;;;20.40;95.60;;;;;;5061715;28;20547;-79
2021/07/06 11:00:03;;;;;;;2.60;1.73;;;20.40;95.60;;;;;;5066067;28;20480;-79
2021/07/06 11:02:32;;;;;;;1.47;1.17;;;20.40;95.60;;;;;;5065432;28;20542;-78
2021/07/06 11:05:10;;;;;;;1.30;1.20;;;20.50;94.60;;;;;;5060927;28;20482;-78
2021/07/06 11:07:51;;;;;;;2.10;1.20;;;20.80;93.70;;;;;;5062555;28;20502;-79
2021/07/06 11:10:36;;;;;;;2.23;1.00;;;21.20;92.20;;;;;;5066176;28;20417;-78
2021/07/06 11:13:27;;;;;;;0.73;0.73;;;21.60;91.60;;;;;;5067233;28;20494;-79
2021/07/06 11:16:00;;;;;;;1.70;0.90;;;21.70;85.10;;;;;;5066536;28;20473;-79
2021/07/06 11:18:35;;;;;;;1.03;1.03;;;21.70;86.70;;;;;;5067526;28;20462;-80
2021/07/06 11:21:03;;;;;;;1.13;0.90;;;21.50;86.80;;;;;;5071143;28;20438;-79
2021/07/06 11:23:36;;;;;;;1.17;0.93;;;21.20;88.30;;;;;;5069251;28;20502;-80
2021/07/06 11:26:05;;;;;;;1.90;1.10;;;20.90;90.00;;;;;;5067656;28;20467;-81
2021/07/06 11:28:32;;;;;;;1.60;0.90;;;20.70;91.30;;;;;;5067937;28;20459;-80
2021/07/06 11:31:03;;;;;;;2.47;1.00;;;20.60;92.70;;;;;;5068123;28;20448;-80
2021/07/06 11:33:41;;;;;;;2.23;1.40;;;20.30;93.60;;;;;;5072834;28;20485;-79
2021/07/06 11:36:17;;;;;;;1.03;0.93;;;20.10;95.10;;;;;;5072090;28;20428;-80
2021/07/06 11:38:46;;;;;;;2.13;1.93;;;19.90;95.40;;;;;;5067194;28;20456;-80
2021/07/06 11:41:14;;;;;;;2.00;1.37;;;19.70;97.20;;;;;;5067578;28;20427;-81
2021/07/06 11:43:54;;;;;;;1.80;1.13;;;19.60;98.30;;;;;;5071320;28;20469;-80
2021/07/06 11:46:23;;;;;;;2.10;1.37;;;19.50;99.90;;;;;;5072932;28;20543;-82
2021/07/06 11:48:51;;;;;;;5.63;1.40;;;19.50;99.90;;;;;;5064296;28;20456;-80
2021/07/06 11:51:20;;;;;;;1.10;1.10;;;19.40;99.90;;;;;;5065087;28;20468;-80
2021/07/06 11:53:55;;;;;;;1.57;1.47;;;19.20;99.90;;;;;;5063618;28;20462;-80
2021/07/06 11:56:24;;;;;;;0.90;0.90;;;19.20;99.90;;;;;;5064597;28;20500;-80
2021/07/06 11:58:51;;;;;;;1.27;1.20;;;19.20;99.90;;;;;;5064240;28;20909;-80
2021/07/06 12:01:18;;;;;;;2.03;1.50;;;19.20;99.90;;;;;;5064781;28;20451;-79
2021/07/06 12:03:46;;;;;;;4.00;1.40;;;19.20;99.90;;;;;;5063839;28;20881;-80
2021/07/06 12:06:15;;;;;;;1.70;1.60;;;19.20;99.90;;;;;;5064812;28;20530;-79
2021/07/06 12:08:43;;;;;;;1.40;1.30;;;19.20;99.90;;;;;;5065679;28;20495;-79
2021/07/06 12:11:12;;;;;;;1.63;1.13;;;19.30;99.90;;;;;;5068665;28;20477;-80
2021/07/06 12:13:47;;;;;;;2.07;1.47;;;19.40;99.90;;;;;;5066322;28;20874;-81
2021/07/06 12:16:15;;;;;;;2.73;1.27;;;19.30;99.90;;;;;;5064858;28;20824;-80
2021/07/06 12:18:52;;;;;;;2.77;1.13;;;19.30;99.90;;;;;;5072695;28;20449;-81
2021/07/06 12:21:25;;;;;;;2.03;1.40;;;19.30;99.90;;;;;;5071068;28;20437;-80
2021/07/06 12:23:53;;;;;;;1.50;1.40;;;19.30;99.90;;;;;;5077103;28;20469;-81
2021/07/06 12:26:20;;;;;;;1.53;1.43;;;19.30;99.90;;;;;;5068203;28;20484;-80
2021/07/06 12:28:47;;;;;;;1.97;1.30;;;19.20;99.90;;;;;;5067292;28;20480;-81
2021/07/06 12:31:22;;;;;;;1.47;1.37;;;19.20;99.90;;;;;;5066882;28;20477;-81
2021/07/06 12:34:17;;;;;;;2.47;1.20;;;19.00;99.90;;;;;;5067066;28;20500;-81
2021/07/06 12:36:47;;;;;;;1.67;1.40;;;19.00;99.90;;;;;;5066060;28;20456;-79
2021/07/06 12:39:20;;;;;;;1.50;1.40;;;19.00;99.90;;;;;;5064595;28;20435;-79
2021/07/06 12:41:51;;;;;;;4.70;1.90;;;19.00;99.90;;;;;;5063211;28;20441;-79
2021/07/06 12:44:20;;;;;;;4.03;1.27;;;19.00;99.90;;;;;;5064956;28;20874;-80
2021/07/06 12:46:47;;;;;;;1.40;1.30;;;19.00;99.90;;;;;;5061597;28;20810;-80
2021/07/06 12:49:26;;;;;;;2.83;1.47;;;19.00;99.90;;;;;;5061648;28;20924;-82
2021/07/06 12:52:00;;;;;;;3.60;2.00;;;19.00;99.90;;;;;;5062546;28;20470;-79
2021/07/06 12:54:33;;;;;;;1.90;1.30;;;19.10;99.90;;;;;;5064129;28;20559;-80
2021/07/06 12:57:00;;;;;;;1.40;1.30;;;19.10;99.90;;;;;;5065047;28;20441;-80